createdAt,value
2018-09-11T11:37:42.013Z,0.00
2018-09-11T11:47:42.270Z,0.00
2018-09-11T11:57:42.325Z,0.00
2018-09-11T12:07:42.072Z,0.00
2018-09-11T12:17:42.163Z,0.00
2018-09-11T12:27:42.111Z,0.00
2018-09-11T12:37:42.126Z,0.00
2018-09-11T12:47:42.819Z,0.00
2018-09-11T12:57:42.032Z,0.00
2018-09-11T13:07:42.432Z,0.00
2018-09-11T13:27:49.192Z,0.00
2018-09-11T13:37:48.199Z,0.00
2018-09-11T13:47:48.386Z,0.00
2018-09-11T13:57:48.098Z,0.00
2018-09-11T14:07:48.176Z,0.00
2018-09-11T14:17:48.250Z,0.00
2018-09-11T14:37:08.631Z,1001.24
2018-09-11T14:47:08.187Z,1001.38
2018-09-11T15:10:03.044Z,1001.16
2018-09-11T15:20:02.973Z,1001.12
2018-09-11T15:30:03.106Z,1001.00
2018-09-11T15:40:03.073Z,1000.92
2018-09-11T15:50:03.070Z,1000.87
2018-09-11T16:00:03.144Z,1000.72
2018-09-11T16:10:03.049Z,1000.62
2018-09-11T16:20:03.305Z,1000.48
2018-09-11T16:30:04.225Z,1000.40
2018-09-11T16:40:03.259Z,1000.37
2018-09-11T16:50:03.120Z,1000.34
2018-09-11T17:00:03.117Z,1000.42
2018-09-11T17:10:03.067Z,1000.52
2018-09-11T17:20:03.173Z,1000.46
2018-09-11T17:30:03.109Z,1000.40
2018-09-11T17:40:03.084Z,1000.50
2018-09-11T17:50:03.182Z,1000.68
2018-09-11T18:00:03.400Z,1000.74
2018-09-11T18:10:03.122Z,1000.81
2018-09-11T18:20:03.221Z,1000.79
2018-09-11T18:30:03.202Z,1000.98
2018-09-11T18:40:04.679Z,1000.97
2018-09-11T18:50:03.738Z,1001.02
2018-09-11T19:00:03.203Z,1001.11
2018-09-11T19:10:03.148Z,1001.09
2018-09-11T19:20:03.252Z,1001.03
2018-09-11T19:30:03.161Z,1001.09
2018-09-11T19:40:03.803Z,1001.04
2018-09-11T19:50:03.197Z,1001.08
2018-09-11T20:00:03.272Z,1001.02
2018-09-11T20:10:03.474Z,1001.15
2018-09-11T20:20:03.298Z,1001.20
2018-09-11T20:30:03.174Z,1001.28
2018-09-11T20:40:03.399Z,1001.26
2018-09-11T20:50:03.160Z,1001.26
2018-09-11T21:00:03.573Z,1001.29
2018-09-11T21:10:03.227Z,1001.42
2018-09-11T21:20:03.169Z,703.12
2018-09-11T21:30:03.077Z,703.12
2018-09-11T21:40:03.203Z,703.12
2018-09-11T21:50:03.123Z,703.12
2018-09-11T22:00:03.573Z,703.12
2018-09-11T22:10:03.366Z,703.12
2018-09-11T22:20:03.345Z,703.12
2018-09-11T22:30:03.758Z,703.12
2018-09-11T22:40:03.891Z,703.12
2018-09-11T22:50:03.748Z,703.12
2018-09-11T23:00:03.903Z,703.12
2018-09-11T23:10:04.311Z,703.12
2018-09-11T23:20:04.778Z,703.12
2018-09-11T23:30:04.497Z,703.12
2018-09-11T23:40:04.448Z,703.12
2018-09-11T23:50:04.973Z,703.12
